createdAt,value
2023-03-07T00:00:41.213Z,83.49
2023-03-07T00:01:41.154Z,83.59
2023-03-07T00:02:41.122Z,83.49
2023-03-07T00:03:41.057Z,83.30
2023-03-07T00:04:40.968Z,83.49
2023-03-07T00:05:40.900Z,83.49
2023-03-07T00:06:40.845Z,83.59
2023-03-07T00:07:40.782Z,83.59
2023-03-07T00:08:40.721Z,83.78
2023-03-07T00:09:40.660Z,83.78
2023-03-07T00:10:40.603Z,83.97
2023-03-07T00:11:40.536Z,83.49
2023-03-07T00:12:40.472Z,83.59
2023-03-07T00:13:40.426Z,83.68
2023-03-07T00:14:40.351Z,83.49
2023-03-07T00:15:40.302Z,83.59
2023-03-07T00:16:40.236Z,83.49
2023-03-07T00:17:40.182Z,83.20
2023-03-07T00:18:40.113Z,83.30
2023-03-07T00:19:40.048Z,83.20
2023-03-07T00:20:39.995Z,83.30
2023-03-07T00:21:39.934Z,83.39
2023-03-07T00:22:39.873Z,83.20
2023-03-07T00:23:39.808Z,83.30
2023-03-07T00:24:39.748Z,83.59
2023-03-07T00:25:39.697Z,83.68
2023-03-07T00:26:39.634Z,83.20
2023-03-07T00:27:39.573Z,83.20
2023-03-07T00:28:39.502Z,83.39
2023-03-07T00:29:39.446Z,83.39
2023-03-07T00:30:39.379Z,83.59
2023-03-07T00:31:39.360Z,83.39
2023-03-07T00:32:39.454Z,83.49
2023-03-07T00:33:39.197Z,83.49
2023-03-07T00:34:39.141Z,83.49
2023-03-07T00:35:39.087Z,83.01
2023-03-07T00:36:39.031Z,83.11
2023-03-07T00:37:38.957Z,83.11
2023-03-07T00:38:38.896Z,83.11
2023-03-07T00:39:38.828Z,83.01
2023-03-07T00:40:38.776Z,83.11
2023-03-07T00:41:38.711Z,83.11
2023-03-07T00:42:38.748Z,83.11
2023-03-07T00:43:38.599Z,83.20
2023-03-07T00:44:38.530Z,83.11
2023-03-07T00:45:38.562Z,83.30
2023-03-07T00:46:38.407Z,83.30
2023-03-07T00:47:38.343Z,83.20
2023-03-07T00:48:38.288Z,83.39
2023-03-07T00:49:38.220Z,83.59
2023-03-07T00:50:38.162Z,83.11
2023-03-07T00:51:38.098Z,83.11
2023-03-07T00:52:38.042Z,83.11
2023-03-07T00:53:38.008Z,82.82
2023-03-07T00:54:37.926Z,83.01
2023-03-07T00:55:37.854Z,83.11
2023-03-07T00:56:37.796Z,83.01
2023-03-07T00:57:37.746Z,83.20
2023-03-07T00:58:37.674Z,83.01
2023-03-07T00:59:37.610Z,82.92
2023-03-07T01:00:37.573Z,83.59
2023-03-07T01:01:37.499Z,83.20
2023-03-07T01:02:37.430Z,83.49
2023-03-07T01:03:37.365Z,83.01
2023-03-07T01:04:37.386Z,83.11
2023-03-07T01:05:37.247Z,83.11
2023-03-07T01:06:37.184Z,83.01
2023-03-07T01:07:37.122Z,83.11
2023-03-07T01:08:37.061Z,83.01
2023-03-07T01:09:37.005Z,83.11
2023-03-07T01:10:36.942Z,83.11
2023-03-07T01:11:36.879Z,83.11
2023-03-07T01:12:36.817Z,83.11
2023-03-07T01:13:36.766Z,83.01
2023-03-07T01:14:36.696Z,83.01
2023-03-07T01:15:36.638Z,83.01
2023-03-07T01:16:36.661Z,83.01
2023-03-07T01:17:36.525Z,83.01
2023-03-07T01:18:37.097Z,83.39
2023-03-07T01:19:36.402Z,82.92
2023-03-07T01:20:36.336Z,83.11
2023-03-07T01:21:36.280Z,83.11
2023-03-07T01:22:36.209Z,83.11
2023-03-07T01:23:36.149Z,82.92
2023-03-07T01:24:36.095Z,82.92
2023-03-07T01:25:36.026Z,83.01
2023-03-07T01:26:35.965Z,83.01
2023-03-07T01:27:35.906Z,82.92
2023-03-07T01:28:35.841Z,83.39
2023-03-07T01:29:35.784Z,83.30
2023-03-07T01:30:35.729Z,83.01
2023-03-07T01:31:35.779Z,83.39
2023-03-07T01:32:35.619Z,83.39
2023-03-07T01:33:35.547Z,82.92
2023-03-07T01:34:35.475Z,82.64
2023-03-07T01:35:35.457Z,83.01
2023-03-07T01:36:35.386Z,83.11
2023-03-07T01:37:35.297Z,83.11
2023-03-07T01:38:35.231Z,82.92
2023-03-07T01:39:35.171Z,83.01
2023-03-07T01:40:35.110Z,83.01
2023-03-07T01:41:35.048Z,83.11
2023-03-07T01:42:34.986Z,83.49
2023-03-07T01:43:34.929Z,83.30
2023-03-07T01:44:34.865Z,83.20
2023-03-07T01:45:34.841Z,83.59
2023-03-07T01:46:34.762Z,83.39
2023-03-07T01:47:34.685Z,83.11
2023-03-07T01:48:34.628Z,83.30
2023-03-07T01:49:34.624Z,83.01
2023-03-07T01:50:34.498Z,83.30
2023-03-07T01:51:34.453Z,83.39
2023-03-07T01:52:34.384Z,83.49
2023-03-07T01:53:34.322Z,82.92
2023-03-07T01:54:34.254Z,83.59
2023-03-07T01:55:34.202Z,83.11
2023-03-07T01:56:34.133Z,82.82
2023-03-07T01:57:34.072Z,82.82
2023-03-07T01:58:34.006Z,82.92
2023-03-07T01:59:33.948Z,82.82
2023-03-07T02:00:33.884Z,82.54
2023-03-07T02:01:33.872Z,83.11
2023-03-07T02:02:33.762Z,82.45
2023-03-07T02:03:33.701Z,82.54
2023-03-07T02:04:33.728Z,82.35
2023-03-07T02:05:33.599Z,82.35
2023-03-07T02:06:33.517Z,82.64
2023-03-07T02:07:33.459Z,82.45
2023-03-07T02:08:33.395Z,82.73
2023-03-07T02:09:33.338Z,82.73
2023-03-07T02:10:33.269Z,83.01
2023-03-07T02:11:33.215Z,83.20
2023-03-07T02:12:33.161Z,82.82
2023-03-07T02:13:33.101Z,83.20
2023-03-07T02:14:33.068Z,83.20
2023-03-07T02:15:32.969Z,82.92
2023-03-07T02:16:32.908Z,82.26
2023-03-07T02:17:32.852Z,82.35
2023-03-07T02:18:32.788Z,82.45
2023-03-07T02:19:32.725Z,82.54
2023-03-07T02:20:32.664Z,82.54
2023-03-07T02:21:32.616Z,82.73
2023-03-07T02:22:32.549Z,82.54
2023-03-07T02:23:32.484Z,82.54
2023-03-07T02:24:32.424Z,82.64
2023-03-07T02:25:32.361Z,82.45
2023-03-07T02:26:32.295Z,82.54
2023-03-07T02:27:32.238Z,82.45
2023-03-07T02:28:32.172Z,82.26
2023-03-07T02:29:32.130Z,82.64
2023-03-07T02:30:32.049Z,82.64
2023-03-07T02:31:31.998Z,82.64
2023-03-07T02:32:32.025Z,82.64
2023-03-07T02:33:31.881Z,82.92
2023-03-07T02:34:31.829Z,83.01
2023-03-07T02:35:31.840Z,83.01
2023-03-07T02:36:31.686Z,83.01
2023-03-07T02:37:31.636Z,83.01
2023-03-07T02:38:31.566Z,83.11
2023-03-07T02:39:31.503Z,82.73
2023-03-07T02:40:31.465Z,82.45
2023-03-07T02:41:31.385Z,82.54
2023-03-07T02:42:31.318Z,82.64
2023-03-07T02:43:31.264Z,82.64
2023-03-07T02:44:31.196Z,82.45
2023-03-07T02:45:31.147Z,82.73
2023-03-07T02:46:31.104Z,82.54
2023-03-07T02:47:31.030Z,82.73
2023-03-07T02:48:30.956Z,82.54
2023-03-07T02:49:30.897Z,82.45
2023-03-07T02:50:30.833Z,82.45
2023-03-07T02:51:30.777Z,82.45
2023-03-07T02:52:30.711Z,82.45
2023-03-07T02:53:30.720Z,82.45
2023-03-07T02:54:30.586Z,82.54
2023-03-07T02:55:30.521Z,82.64
2023-03-07T02:56:30.462Z,82.73
2023-03-07T02:57:30.399Z,82.73
2023-03-07T02:58:30.346Z,82.64
2023-03-07T02:59:30.283Z,82.45
2023-03-07T03:00:30.216Z,82.35
2023-03-07T03:01:30.207Z,82.64
2023-03-07T03:02:30.114Z,82.35
2023-03-07T03:03:30.040Z,82.35
2023-03-07T03:04:29.995Z,82.45
2023-03-07T03:05:29.918Z,82.26
2023-03-07T03:06:29.854Z,82.35
2023-03-07T03:07:29.796Z,82.45
2023-03-07T03:08:29.733Z,82.26
2023-03-07T03:09:29.680Z,82.45
2023-03-07T03:10:29.608Z,82.45
2023-03-07T03:11:29.552Z,82.54
2023-03-07T03:12:29.511Z,82.54
2023-03-07T03:13:29.426Z,82.64
2023-03-07T03:14:29.370Z,82.45
2023-03-07T03:15:29.306Z,82.45
2023-03-07T03:16:29.343Z,82.45
2023-03-07T03:17:29.191Z,82.54
2023-03-07T03:18:29.132Z,82.54
2023-03-07T03:19:29.060Z,82.73
2023-03-07T03:20:28.998Z,82.54
2023-03-07T03:21:28.942Z,82.54
2023-03-07T03:22:28.902Z,82.64
2023-03-07T03:23:28.831Z,82.64
2023-03-07T03:24:28.755Z,82.82
2023-03-07T03:25:28.712Z,82.64
2023-03-07T03:26:28.637Z,82.73
2023-03-07T03:27:28.580Z,82.73
2023-03-07T03:28:28.513Z,82.54
2023-03-07T03:29:28.453Z,82.64
2023-03-07T03:30:28.388Z,82.64
2023-03-07T03:31:28.418Z,82.73
2023-03-07T03:32:28.294Z,82.54
2023-03-07T03:33:28.205Z,82.45
2023-03-07T03:34:28.146Z,82.92
2023-03-07T03:35:28.085Z,82.64
2023-03-07T03:36:28.028Z,82.64
2023-03-07T03:37:27.959Z,82.45
2023-03-07T03:38:27.897Z,82.54
2023-03-07T03:39:27.840Z,82.73
2023-03-07T03:40:27.777Z,82.54
2023-03-07T03:41:27.729Z,82.73
2023-03-07T03:42:27.652Z,82.64
2023-03-07T03:43:27.594Z,82.82
2023-03-07T03:44:27.532Z,82.92
2023-03-07T03:45:27.474Z,82.73
2023-03-07T03:46:27.419Z,82.73
2023-03-07T03:47:27.350Z,82.54
2023-03-07T03:48:27.292Z,82.64
2023-03-07T03:49:27.231Z,82.73
2023-03-07T03:50:27.163Z,82.45
2023-03-07T03:51:27.108Z,82.45
2023-03-07T03:52:27.043Z,82.45
2023-03-07T03:53:26.982Z,82.54
2023-03-07T03:54:26.924Z,82.64
2023-03-07T03:55:26.864Z,82.92
2023-03-07T03:56:26.799Z,82.92
2023-03-07T03:57:26.795Z,82.92
2023-03-07T03:58:26.682Z,82.82
2023-03-07T03:59:26.621Z,82.92
2023-03-07T04:00:26.555Z,82.82
2023-03-07T04:01:26.492Z,82.45
2023-03-07T04:02:26.526Z,82.64
2023-03-07T04:03:26.379Z,82.64
2023-03-07T04:04:26.311Z,82.45
2023-03-07T04:05:26.253Z,82.64
2023-03-07T04:06:26.185Z,82.64
2023-03-07T04:07:26.129Z,82.92
2023-03-07T04:08:26.066Z,82.54
2023-03-07T04:09:26.023Z,82.64
2023-03-07T04:10:25.940Z,82.54
2023-03-07T04:11:25.882Z,82.45
2023-03-07T04:12:25.824Z,82.64
2023-03-07T04:13:25.774Z,82.45
2023-03-07T04:14:25.698Z,82.54
2023-03-07T04:15:25.632Z,82.54
2023-03-07T04:16:25.625Z,82.35
2023-03-07T04:17:25.516Z,82.45
2023-03-07T04:18:25.451Z,82.45
2023-03-07T04:19:25.386Z,82.45
2023-03-07T04:20:25.326Z,82.16
2023-03-07T04:21:25.275Z,82.54
2023-03-07T04:22:25.206Z,82.54
2023-03-07T04:23:25.158Z,82.45
2023-03-07T04:24:25.101Z,82.45
2023-03-07T04:25:25.038Z,82.35
2023-03-07T04:26:24.961Z,82.82
2023-03-07T04:27:24.904Z,82.64
2023-03-07T04:28:25.633Z,82.64
2023-03-07T04:29:24.789Z,82.73
2023-03-07T04:30:24.718Z,82.64
2023-03-07T04:31:25.653Z,82.73
2023-03-07T04:32:25.202Z,82.82
2023-03-07T04:33:25.141Z,82.54
2023-03-07T04:34:25.131Z,82.54
2023-03-07T04:35:24.409Z,82.64
2023-03-07T04:36:24.348Z,82.73
2023-03-07T04:37:24.295Z,82.73
2023-03-07T04:38:24.235Z,82.45
2023-03-07T04:39:24.175Z,82.73
2023-03-07T04:40:24.103Z,82.54
2023-03-07T04:41:24.047Z,82.54
2023-03-07T04:42:23.985Z,82.73
2023-03-07T04:43:23.920Z,81.97
2023-03-07T04:44:23.864Z,82.07
2023-03-07T04:45:23.816Z,82.35
2023-03-07T04:46:23.736Z,82.07
2023-03-07T04:47:23.676Z,82.07
2023-03-07T04:48:23.619Z,82.35
2023-03-07T04:49:23.577Z,82.35
2023-03-07T04:50:23.495Z,82.45
2023-03-07T04:51:23.439Z,81.97
2023-03-07T04:52:23.386Z,82.07
2023-03-07T04:53:23.314Z,82.54
2023-03-07T04:54:23.261Z,82.64
2023-03-07T04:55:23.197Z,82.73
2023-03-07T04:56:23.124Z,82.64
2023-03-07T04:57:23.066Z,82.73
2023-03-07T04:58:23.006Z,82.45
2023-03-07T04:59:22.952Z,82.73
2023-03-07T05:00:22.880Z,82.07
2023-03-07T05:01:22.876Z,82.45
2023-03-07T05:02:22.762Z,82.73
2023-03-07T05:03:22.705Z,81.97
2023-03-07T05:04:22.686Z,82.07
2023-03-07T05:05:22.584Z,82.45
2023-03-07T05:06:22.518Z,82.64
2023-03-07T05:07:22.453Z,82.54
2023-03-07T05:08:22.397Z,82.54
2023-03-07T05:09:22.334Z,82.73
2023-03-07T05:10:22.276Z,82.54
2023-03-07T05:11:22.211Z,82.64
2023-03-07T05:12:22.157Z,82.54
2023-03-07T05:13:22.091Z,82.35
2023-03-07T05:14:22.051Z,82.07
2023-03-07T05:15:21.965Z,81.97
2023-03-07T05:16:21.929Z,82.07
2023-03-07T05:17:21.959Z,82.07
2023-03-07T05:18:21.780Z,82.54
2023-03-07T05:19:21.761Z,82.54
2023-03-07T05:20:21.664Z,82.26
2023-03-07T05:21:21.600Z,82.07
2023-03-07T05:22:21.532Z,82.26
2023-03-07T05:23:21.484Z,82.07
2023-03-07T05:24:21.415Z,81.97
2023-03-07T05:25:21.353Z,81.87
2023-03-07T05:26:21.294Z,82.07
2023-03-07T05:27:21.232Z,81.78
2023-03-07T05:28:21.167Z,81.68
2023-03-07T05:29:21.217Z,81.97
2023-03-07T05:30:21.063Z,81.97
2023-03-07T05:31:21.032Z,82.07
2023-03-07T05:32:20.978Z,81.87
2023-03-07T05:33:20.872Z,81.87
2023-03-07T05:34:20.808Z,82.16
2023-03-07T05:35:20.746Z,82.16
2023-03-07T05:36:20.681Z,82.16
2023-03-07T05:37:20.617Z,82.07
2023-03-07T05:38:20.565Z,82.07
2023-03-07T05:39:20.496Z,81.97
2023-03-07T05:40:20.435Z,82.07
2023-03-07T05:41:20.389Z,81.87
2023-03-07T05:42:20.316Z,82.07
2023-03-07T05:43:20.255Z,81.78
2023-03-07T05:44:20.192Z,81.59
2023-03-07T05:45:20.129Z,81.87
2023-03-07T05:46:20.127Z,82.16
2023-03-07T05:47:20.036Z,82.16
2023-03-07T05:48:19.951Z,81.87
2023-03-07T05:49:19.894Z,81.78
2023-03-07T05:50:19.828Z,81.59
2023-03-07T05:51:19.762Z,81.68
2023-03-07T05:52:19.708Z,81.87
2023-03-07T05:53:19.655Z,81.78
2023-03-07T05:54:19.598Z,81.68
2023-03-07T05:55:19.514Z,81.87
2023-03-07T05:56:19.460Z,82.07
2023-03-07T05:57:19.408Z,81.87
2023-03-07T05:58:19.338Z,81.78
2023-03-07T05:59:19.298Z,81.87
2023-03-07T06:00:19.210Z,81.87
2023-03-07T06:01:19.181Z,81.87
2023-03-07T06:02:19.155Z,81.59
2023-03-07T06:03:19.032Z,81.97
2023-03-07T06:04:18.964Z,81.78
2023-03-07T06:05:18.915Z,81.87
2023-03-07T06:06:18.843Z,81.87
2023-03-07T06:07:18.788Z,81.87
2023-03-07T06:08:18.724Z,81.87
2023-03-07T06:09:18.687Z,81.87
2023-03-07T06:10:18.602Z,81.87
2023-03-07T06:11:18.538Z,81.49
2023-03-07T06:12:18.482Z,81.59
2023-03-07T06:13:18.417Z,81.59
2023-03-07T06:14:18.357Z,81.87
2023-03-07T06:15:18.288Z,81.68
2023-03-07T06:16:18.280Z,81.59
2023-03-07T06:17:18.169Z,81.97
2023-03-07T06:18:18.108Z,81.78
2023-03-07T06:19:18.047Z,81.59
2023-03-07T06:20:17.985Z,81.97
2023-03-07T06:21:17.940Z,81.30
2023-03-07T06:22:17.871Z,81.49
2023-03-07T06:23:17.806Z,81.40
2023-03-07T06:24:17.744Z,81.21
2023-03-07T06:25:17.705Z,81.30
2023-03-07T06:26:17.627Z,81.30
2023-03-07T06:27:17.563Z,81.30
2023-03-07T06:28:17.520Z,81.59
2023-03-07T06:29:17.434Z,81.30
2023-03-07T06:30:17.404Z,81.87
2023-03-07T06:31:17.354Z,81.40
2023-03-07T06:32:17.283Z,81.12
2023-03-07T06:33:17.186Z,81.59
2023-03-07T06:34:17.126Z,81.68
2023-03-07T06:35:17.069Z,81.78
2023-03-07T06:36:17.023Z,81.40
2023-03-07T06:37:16.964Z,81.12
2023-03-07T06:38:16.883Z,81.21
2023-03-07T06:39:16.827Z,81.49
2023-03-07T06:40:16.761Z,81.78
2023-03-07T06:41:16.700Z,81.21
2023-03-07T06:42:16.642Z,81.30
2023-03-07T06:43:16.591Z,81.68
2023-03-07T06:44:16.519Z,81.30
2023-03-07T06:45:16.466Z,81.59
2023-03-07T06:46:16.398Z,81.68
2023-03-07T06:47:16.331Z,81.68
2023-03-07T06:48:16.286Z,81.30
2023-03-07T06:49:16.213Z,81.40
2023-03-07T06:50:17.671Z,81.30
2023-03-07T06:51:16.087Z,81.30
2023-03-07T06:52:16.031Z,81.30
2023-03-07T06:53:15.970Z,81.30
2023-03-07T06:54:15.903Z,81.30
2023-03-07T06:55:15.844Z,81.68
2023-03-07T06:56:15.784Z,81.49
2023-03-07T06:57:15.717Z,81.30
2023-03-07T06:58:15.657Z,81.30
2023-03-07T06:59:15.598Z,81.30
2023-03-07T07:00:15.538Z,81.30
2023-03-07T07:01:15.478Z,81.40
2023-03-07T07:02:15.523Z,81.40
2023-03-07T07:03:15.474Z,81.30
2023-03-07T07:04:15.298Z,81.40
2023-03-07T07:05:15.228Z,81.40
2023-03-07T07:06:15.165Z,81.49
2023-03-07T07:07:15.110Z,81.40
2023-03-07T07:08:15.046Z,81.49
2023-03-07T07:09:14.988Z,81.40
2023-03-07T07:10:14.926Z,81.40
2023-03-07T07:11:14.861Z,81.30
2023-03-07T07:12:14.797Z,81.49
2023-03-07T07:13:14.741Z,81.02
2023-03-07T07:14:14.678Z,81.12
2023-03-07T07:15:14.615Z,81.40
2023-03-07T07:16:14.573Z,81.30
2023-03-07T07:17:14.495Z,81.40
2023-03-07T07:18:14.432Z,81.30
2023-03-07T07:19:14.366Z,81.40
2023-03-07T07:20:14.307Z,81.02
2023-03-07T07:21:14.257Z,80.64
2023-03-07T07:22:14.184Z,81.12
2023-03-07T07:23:14.123Z,81.21
2023-03-07T07:24:14.071Z,81.30
2023-03-07T07:25:14.061Z,81.21
2023-03-07T07:26:13.948Z,81.02
2023-03-07T07:27:13.886Z,81.30
2023-03-07T07:28:13.822Z,81.21
2023-03-07T07:29:13.757Z,81.59
2023-03-07T07:30:13.696Z,81.30
2023-03-07T07:31:13.637Z,81.30
2023-03-07T07:32:13.811Z,80.93
2023-03-07T07:33:13.627Z,81.59
2023-03-07T07:34:13.448Z,80.64
2023-03-07T07:35:13.392Z,80.64
2023-03-07T07:36:13.331Z,80.93
2023-03-07T07:37:13.264Z,80.64
2023-03-07T07:38:13.205Z,80.74
2023-03-07T07:39:13.150Z,80.45
2023-03-07T07:40:13.125Z,80.74
2023-03-07T07:41:13.037Z,80.35
2023-03-07T07:42:12.961Z,80.45
2023-03-07T07:43:12.906Z,80.35
2023-03-07T07:44:12.845Z,80.83
2023-03-07T07:45:12.805Z,80.55
2023-03-07T07:46:12.766Z,80.35
2023-03-07T07:47:12.658Z,80.64
2023-03-07T07:48:12.599Z,80.45
2023-03-07T07:49:12.534Z,80.64
2023-03-07T07:50:12.473Z,80.64
2023-03-07T07:51:12.414Z,80.74
2023-03-07T07:52:12.355Z,81.02
2023-03-07T07:53:12.301Z,80.64
2023-03-07T07:54:12.239Z,80.83
2023-03-07T07:55:12.168Z,80.93
2023-03-07T07:56:12.230Z,80.64
2023-03-07T07:57:12.058Z,80.64
2023-03-07T07:58:11.994Z,80.74
2023-03-07T07:59:11.926Z,80.64
2023-03-07T08:00:11.863Z,80.64
2023-03-07T08:01:11.808Z,81.30
2023-03-07T08:02:11.746Z,81.59
2023-03-07T08:03:11.694Z,81.21
2023-03-07T08:04:11.649Z,81.40
2023-03-07T08:05:11.558Z,81.12
2023-03-07T08:06:11.500Z,81.40
2023-03-07T08:07:11.431Z,81.40
2023-03-07T08:08:11.377Z,81.59
2023-03-07T08:09:11.317Z,80.93
2023-03-07T08:10:11.255Z,81.02
2023-03-07T08:11:11.190Z,80.74
2023-03-07T08:12:11.129Z,81.49
2023-03-07T08:13:11.076Z,81.12
2023-03-07T08:14:11.007Z,81.30
2023-03-07T08:15:10.945Z,81.30
2023-03-07T08:16:10.945Z,81.30
2023-03-07T08:17:10.840Z,81.40
2023-03-07T08:18:10.759Z,81.59
2023-03-07T08:19:10.700Z,81.40
2023-03-07T08:20:10.642Z,81.12
2023-03-07T08:21:10.576Z,81.49
2023-03-07T08:22:10.514Z,81.40
2023-03-07T08:23:10.459Z,81.59
2023-03-07T08:24:10.399Z,80.64
2023-03-07T08:25:10.337Z,80.64
2023-03-07T08:26:10.289Z,80.83
2023-03-07T08:27:10.213Z,80.74
2023-03-07T08:28:10.154Z,80.74
2023-03-07T08:29:10.096Z,81.49
2023-03-07T08:30:10.028Z,81.59
2023-03-07T08:31:09.987Z,80.83
2023-03-07T08:32:11.966Z,80.83
2023-03-07T08:33:09.856Z,81.59
2023-03-07T08:34:09.782Z,81.12
2023-03-07T08:35:09.722Z,81.59
2023-03-07T08:36:09.661Z,81.49
2023-03-07T08:37:09.608Z,81.30
2023-03-07T08:38:09.539Z,81.21
2023-03-07T08:39:09.475Z,81.30
2023-03-07T08:40:09.410Z,81.40
2023-03-07T08:41:09.411Z,81.40
2023-03-07T08:42:09.313Z,81.40
2023-03-07T08:43:09.227Z,81.40
2023-03-07T08:44:09.171Z,81.21
2023-03-07T08:45:09.116Z,81.21
2023-03-07T08:46:09.068Z,80.93
2023-03-07T08:47:08.989Z,80.74
2023-03-07T08:48:08.934Z,81.12
2023-03-07T08:49:08.862Z,81.21
2023-03-07T08:50:08.800Z,80.83
2023-03-07T08:51:08.738Z,80.64
2023-03-07T08:52:08.674Z,80.74
2023-03-07T08:53:08.614Z,80.55
2023-03-07T08:54:08.553Z,80.83
2023-03-07T08:55:08.495Z,80.74
2023-03-07T08:56:08.449Z,80.64
2023-03-07T08:57:08.384Z,81.02
2023-03-07T08:58:08.313Z,80.74
2023-03-07T08:59:08.249Z,80.83
2023-03-07T09:00:08.183Z,81.59
2023-03-07T09:01:08.221Z,80.93
2023-03-07T09:02:08.094Z,81.21
2023-03-07T09:03:08.007Z,81.40
2023-03-07T09:04:07.946Z,81.40
2023-03-07T09:05:08.067Z,81.30
2023-03-07T09:06:07.812Z,81.12
2023-03-07T09:07:07.764Z,81.30
2023-03-07T09:08:07.696Z,81.02
2023-03-07T09:09:07.628Z,81.59
2023-03-07T09:10:07.566Z,81.12
2023-03-07T09:11:07.508Z,81.12
2023-03-07T09:12:07.472Z,81.02
2023-03-07T09:13:07.384Z,81.02
2023-03-07T09:14:07.322Z,81.02
2023-03-07T09:15:07.268Z,81.49
2023-03-07T09:16:07.239Z,81.49
2023-03-07T09:17:07.146Z,81.40
2023-03-07T09:18:07.090Z,81.30
2023-03-07T09:19:07.016Z,81.59
2023-03-07T09:20:06.989Z,81.59
2023-03-07T09:21:06.902Z,81.12
2023-03-07T09:22:06.847Z,80.64
2023-03-07T09:23:06.786Z,81.12
2023-03-07T09:24:06.716Z,81.40
2023-03-07T09:25:06.652Z,81.30
2023-03-07T09:26:06.602Z,81.49
2023-03-07T09:27:06.529Z,81.40
2023-03-07T09:28:06.477Z,81.30
2023-03-07T09:29:06.412Z,81.40
2023-03-07T09:30:06.350Z,81.30
2023-03-07T09:31:06.301Z,81.30
2023-03-07T09:32:06.294Z,81.40
2023-03-07T09:33:06.171Z,81.40
2023-03-07T09:34:06.104Z,81.40
2023-03-07T09:35:06.042Z,81.59
2023-03-07T09:36:06.021Z,81.30
2023-03-07T09:37:05.919Z,81.30
2023-03-07T09:38:05.874Z,81.12
2023-03-07T09:39:05.803Z,81.49
2023-03-07T09:40:05.741Z,81.40
2023-03-07T09:41:05.677Z,81.40
2023-03-07T09:42:05.626Z,81.12
2023-03-07T09:43:05.570Z,81.30
2023-03-07T09:44:05.496Z,80.93
2023-03-07T09:45:05.435Z,81.59
2023-03-07T09:46:05.425Z,81.30
2023-03-07T09:47:05.327Z,80.74
2023-03-07T09:48:05.262Z,81.02
2023-03-07T09:49:05.200Z,81.30
2023-03-07T09:50:05.133Z,80.74
2023-03-07T09:51:11.557Z,81.02
2023-03-07T09:52:05.012Z,81.59
2023-03-07T09:53:04.945Z,81.02
2023-03-07T09:54:04.894Z,81.68
2023-03-07T09:55:04.825Z,81.02
2023-03-07T09:56:04.765Z,81.12
2023-03-07T09:57:04.704Z,81.40
2023-03-07T09:58:04.635Z,81.40
2023-03-07T09:59:13.664Z,81.30
2023-03-07T10:00:04.515Z,81.30
2023-03-07T10:01:04.464Z,81.40
2023-03-07T10:02:04.396Z,81.40
2023-03-07T10:03:04.332Z,81.30
2023-03-07T10:04:04.378Z,81.30
2023-03-07T10:05:04.225Z,81.59
2023-03-07T10:06:04.153Z,81.49
2023-03-07T10:07:04.100Z,80.74
2023-03-07T10:08:04.052Z,80.55
2023-03-07T10:09:04.011Z,80.83
2023-03-07T10:10:03.913Z,80.35
2023-03-07T10:11:03.855Z,80.64
2023-03-07T10:12:04.925Z,80.64
2023-03-07T10:13:03.726Z,80.55
2023-03-07T10:14:03.669Z,80.45
2023-03-07T10:15:03.605Z,80.55
2023-03-07T10:16:03.548Z,80.83
2023-03-07T10:17:03.503Z,80.55
2023-03-07T10:18:04.784Z,80.74
2023-03-07T10:19:03.365Z,80.45
2023-03-07T10:20:03.294Z,80.93
2023-03-07T10:21:03.257Z,80.55
2023-03-07T10:22:03.177Z,80.35
2023-03-07T10:23:03.115Z,80.35
2023-03-07T10:24:03.055Z,80.26
2023-03-07T10:25:02.997Z,80.55
2023-03-07T10:26:02.953Z,80.35
2023-03-07T10:27:02.873Z,80.55
2023-03-07T10:28:02.807Z,80.55
2023-03-07T10:29:02.745Z,80.93
2023-03-07T10:30:02.683Z,80.45
2023-03-07T10:31:02.625Z,80.45
2023-03-07T10:32:02.778Z,80.55
2023-03-07T10:33:02.526Z,80.45
2023-03-07T10:34:02.442Z,80.55
2023-03-07T10:35:02.397Z,80.93
2023-03-07T10:36:02.328Z,80.55
2023-03-07T10:37:08.678Z,80.07
2023-03-07T10:38:02.196Z,80.07
2023-03-07T10:39:02.134Z,80.07
2023-03-07T10:40:04.813Z,80.07
2023-03-07T10:41:02.017Z,80.35
2023-03-07T10:42:01.952Z,80.45
2023-03-07T10:43:01.903Z,80.35
2023-03-07T10:44:01.836Z,80.35
2023-03-07T10:45:01.775Z,80.35
2023-03-07T10:46:01.714Z,80.35
2023-03-07T10:47:01.694Z,79.79
2023-03-07T10:48:01.583Z,79.69
2023-03-07T10:49:01.520Z,79.41
2023-03-07T10:50:01.464Z,79.97
2023-03-07T10:51:01.400Z,79.22
2023-03-07T10:52:01.337Z,79.69
2023-03-07T10:53:01.389Z,79.22
2023-03-07T10:54:01.215Z,79.50
2023-03-07T10:55:01.156Z,80.26
2023-03-07T10:56:01.096Z,79.97
2023-03-07T10:57:01.037Z,79.88
2023-03-07T10:58:00.970Z,79.79
2023-03-07T10:59:00.914Z,79.79
2023-03-07T11:00:00.848Z,79.50
2023-03-07T11:01:00.830Z,80.16
2023-03-07T11:02:00.727Z,79.79
2023-03-07T11:03:00.662Z,80.16
2023-03-07T11:04:00.623Z,80.07
2023-03-07T11:05:00.665Z,80.16
2023-03-07T11:06:00.481Z,79.97
2023-03-07T11:07:00.418Z,79.79
2023-03-07T11:08:00.355Z,80.16
2023-03-07T11:09:01.291Z,79.97
2023-03-07T11:10:00.231Z,80.26
2023-03-07T11:11:00.179Z,79.97
2023-03-07T11:12:00.196Z,80.07
2023-03-07T11:13:00.089Z,79.60
2023-03-07T11:13:59.994Z,79.60
2023-03-07T11:14:59.932Z,79.79
2023-03-07T11:16:10.761Z,79.50
2023-03-07T11:16:59.807Z,79.79
2023-03-07T11:17:59.746Z,79.50
2023-03-07T11:18:59.688Z,79.31
2023-03-07T11:19:59.626Z,79.69
2023-03-07T11:20:59.571Z,79.31
2023-03-07T11:21:59.508Z,79.12
2023-03-07T11:22:59.457Z,78.83
2023-03-07T11:23:59.417Z,78.74
2023-03-07T11:24:59.330Z,79.03
2023-03-07T11:25:59.261Z,79.50
2023-03-07T11:26:59.202Z,79.31
2023-03-07T11:27:59.136Z,79.03
2023-03-07T11:28:59.074Z,79.22
2023-03-07T11:29:59.012Z,78.74
2023-03-07T11:30:58.994Z,79.69
2023-03-07T11:31:58.890Z,79.12
2023-03-07T11:32:58.830Z,78.83
2023-03-07T11:34:00.088Z,78.93
2023-03-07T11:34:58.710Z,79.50
2023-03-07T11:35:58.693Z,79.31
2023-03-07T11:36:58.590Z,79.60
2023-03-07T11:37:58.542Z,79.79
2023-03-07T11:38:58.472Z,79.50
2023-03-07T11:39:58.409Z,79.79
2023-03-07T11:40:58.359Z,79.79
2023-03-07T11:41:58.292Z,79.50
2023-03-07T11:42:58.227Z,79.41
2023-03-07T11:43:58.165Z,79.22
2023-03-07T11:44:58.106Z,79.50
2023-03-07T11:45:58.037Z,79.50
2023-03-07T11:46:57.983Z,79.50
2023-03-07T11:47:57.922Z,79.31
2023-03-07T11:48:57.868Z,79.88
2023-03-07T11:49:57.802Z,79.69
2023-03-07T11:50:57.734Z,79.31
2023-03-07T11:51:57.687Z,79.22
2023-03-07T11:52:57.622Z,79.50
2023-03-07T11:53:57.558Z,79.60
2023-03-07T11:54:57.495Z,79.50
2023-03-07T11:55:57.431Z,79.50
2023-03-07T11:56:57.383Z,79.60
2023-03-07T11:57:57.310Z,79.41
2023-03-07T11:58:57.263Z,79.41
2023-03-07T11:59:57.197Z,79.50
2023-03-07T12:00:57.135Z,79.60
2023-03-07T12:01:57.086Z,80.16
2023-03-07T12:02:57.073Z,79.41
2023-03-07T12:03:56.949Z,79.79
2023-03-07T12:04:56.901Z,79.31
2023-03-07T12:05:56.860Z,79.12
2023-03-07T12:06:56.769Z,79.31
2023-03-07T12:07:56.705Z,79.41
2023-03-07T12:08:56.657Z,78.83
2023-03-07T12:09:56.583Z,78.83
2023-03-07T12:10:56.530Z,79.03
2023-03-07T12:11:56.466Z,79.60
2023-03-07T12:12:56.417Z,79.50
2023-03-07T12:13:56.340Z,79.31
2023-03-07T12:14:56.286Z,79.22
2023-03-07T12:15:56.291Z,78.93
2023-03-07T12:16:56.160Z,79.03
2023-03-07T12:17:56.104Z,78.74
2023-03-07T12:18:56.034Z,79.31
2023-03-07T12:19:55.973Z,78.64
2023-03-07T12:20:55.914Z,78.55
2023-03-07T12:21:55.852Z,79.12
2023-03-07T12:22:55.800Z,79.22
2023-03-07T12:23:55.731Z,78.83
2023-03-07T12:24:55.681Z,79.41
2023-03-07T12:25:55.612Z,78.93
2023-03-07T12:26:55.550Z,79.03
2023-03-07T12:27:55.491Z,78.83
2023-03-07T12:28:55.449Z,78.55
2023-03-07T12:29:55.374Z,79.22
2023-03-07T12:30:55.313Z,79.12
2023-03-07T12:31:55.300Z,79.12
2023-03-07T12:32:55.260Z,78.93
2023-03-07T12:33:55.125Z,79.12
2023-03-07T12:34:55.064Z,79.03
2023-03-07T12:35:55.150Z,78.93
2023-03-07T12:36:54.950Z,79.50
2023-03-07T12:37:54.926Z,79.12
2023-03-07T12:38:54.829Z,79.12
2023-03-07T12:39:54.764Z,79.12
2023-03-07T12:40:54.697Z,79.03
2023-03-07T12:41:54.634Z,79.22
2023-03-07T12:42:54.579Z,79.12
2023-03-07T12:43:54.518Z,79.03
2023-03-07T12:44:54.476Z,79.12
2023-03-07T12:45:54.551Z,79.12
2023-03-07T12:46:54.335Z,79.12
2023-03-07T12:47:54.270Z,79.31
2023-03-07T12:48:54.215Z,78.83
2023-03-07T12:49:54.153Z,78.83
2023-03-07T12:50:54.094Z,79.50
2023-03-07T12:51:54.026Z,78.36